Time;durP1;ratioP1;P1;durP2;ratioP2;P2;SDS_P1;SDS_P2;PMS_P1;PMS_P2;Temp;Humidity;BMP_temperature;BMP_pressure;BME280_temperature;BME280_humidity;BME280_pressure;Samples;Min_cycle;Max_cycle;Signal;HPM_P1;HPM_P2
2023/10/25 00:02:01;;;;;;;;;;;;;;;20.89;46.57;94609.56;10477286;28;2543;-58
2023/10/25 00:07:01;;;;;;;;;;;;;;;20.88;46.54;94609.84;10472040;28;2571;-58
2023/10/25 00:12:02;;;;;;;;;;;;;;;20.86;46.91;94620.69;10466280;28;2927;-58
2023/10/25 00:17:02;;;;;;;;;;;;;;;20.86;46.75;94630.44;10475144;28;2626;-58
2023/10/25 00:22:02;;;;;;;;;;;;;;;20.83;46.89;94634.47;10474143;28;2777;-58
2023/10/25 00:27:03;;;;;;;;;;;;;;;20.83;46.38;94631.84;10479888;28;2684;-58
2023/10/25 00:32:05;;;;;;;;;;;;;;;20.82;46.63;94640.03;10476359;28;2587;-58
2023/10/25 00:37:05;;;;;;;;;;;;;;;20.81;46.83;94643.75;10463430;28;2523;-58
2023/10/25 00:42:05;;;;;;;;;;;;;;;20.80;46.93;94652.72;10481812;28;2625;-59
2023/10/25 00:47:06;;;;;;;;;;;;;;;20.79;46.48;94645.91;10471460;28;2619;-58
2023/10/25 00:52:06;;;;;;;;;;;;;;;20.77;46.79;94658.59;10459635;28;5293;-59
2023/10/25 00:57:07;;;;;;;;;;;;;;;20.77;46.49;94663.88;10465293;28;2546;-58
2023/10/25 01:02:07;;;;;;;;;;;;;;;20.76;46.62;94664.94;10458801;28;2539;-58
2023/10/25 01:07:08;;;;;;;;;;;;;;;20.74;46.62;94659.97;10474271;28;2600;-59
2023/10/25 01:12:08;;;;;;;;;;;;;;;20.73;46.64;94655.78;10472885;28;2673;-58
2023/10/25 01:17:08;;;;;;;;;;;;;;;20.71;46.54;94657.94;10460676;28;2617;-58
2023/10/25 01:22:08;;;;;;;;;;;;;;;20.70;46.64;94652.97;10475467;28;2566;-59
2023/10/25 01:27:09;;;;;;;;;;;;;;;20.70;46.52;94647.69;10480532;28;2558;-59
2023/10/25 01:32:09;;;;;;;;;;;;;;;20.66;46.45;94647.53;10472623;28;2784;-59
2023/10/25 01:37:09;;;;;;;;;;;;;;;20.67;46.58;94643.81;10477809;28;2566;-59
2023/10/25 01:42:10;;;;;;;;;;;;;;;20.66;46.67;94631.72;10470175;28;2605;-59
2023/10/25 01:47:10;;;;;;;;;;;;;;;20.65;46.38;94634.66;10472348;28;2959;-59
2023/10/25 01:52:10;;;;;;;;;;;;;;;20.64;46.63;94625.19;10471020;28;5131;-58
2023/10/25 01:57:10;;;;;;;;;;;;;;;20.61;46.63;94629.22;10473940;28;2814;-58
2023/10/25 02:02:11;;;;;;;;;;;;;;;20.61;46.57;94623.19;10466682;28;2673;-58
2023/10/25 02:07:11;;;;;;;;;;;;;;;20.60;46.71;94619.78;10483473;28;2614;-58
2023/10/25 02:12:11;;;;;;;;;;;;;;;20.60;46.71;94611.09;10460915;28;2700;-58
2023/10/25 02:17:12;;;;;;;;;;;;;;;20.59;46.43;94607.66;10475079;28;2924;-58
2023/10/25 02:22:12;;;;;;;;;;;;;;;20.59;46.50;94597.13;10479956;28;2665;-58
2023/10/25 02:27:12;;;;;;;;;;;;;;;20.58;46.45;94600.84;10481181;28;2928;-58
2023/10/25 02:32:12;;;;;;;;;;;;;;;20.57;46.53;94615.09;10478206;28;2683;-59
2023/10/25 02:37:13;;;;;;;;;;;;;;;20.55;46.49;94605.94;10478878;28;2607;-58
2023/10/25 02:42:13;;;;;;;;;;;;;;;20.54;46.59;94618.34;10479613;28;2828;-58
2023/10/25 02:47:13;;;;;;;;;;;;;;;20.54;46.60;94618.34;10482919;28;2731;-57
2023/10/25 02:52:14;;;;;;;;;;;;;;;20.53;46.65;94611.50;10476805;28;5056;-58
2023/10/25 02:57:14;;;;;;;;;;;;;;;20.52;46.44;94615.22;10483359;28;2990;-59
2023/10/25 03:02:14;;;;;;;;;;;;;;;20.51;46.71;94613.66;10480100;28;2682;-60
2023/10/25 03:07:14;;;;;;;;;;;;;;;20.50;46.62;94622.66;10484063;28;2587;-58
2023/10/25 03:12:15;;;;;;;;;;;;;;;20.50;46.40;94616.59;10489177;28;2757;-59
2023/10/25 03:17:15;;;;;;;;;;;;;;;20.47;46.58;94607.44;10474769;28;2572;-59
2023/10/25 03:22:15;;;;;;;;;;;;;;;20.48;46.46;94616.91;10479143;28;2675;-59
2023/10/25 03:27:16;;;;;;;;;;;;;;;20.47;46.37;94617.97;10481836;28;2991;-56
2023/10/25 03:32:16;;;;;;;;;;;;;;;20.47;46.31;94609.28;10478737;28;2555;-59
2023/10/25 03:37:16;;;;;;;;;;;;;;;20.45;46.54;94614.84;10474193;28;2827;-59
2023/10/25 03:42:16;;;;;;;;;;;;;;;20.45;46.60;94616.72;10481018;28;2512;-59
2023/10/25 03:47:17;;;;;;;;;;;;;;;20.43;46.53;94621.50;10478339;28;2607;-58
2023/10/25 03:52:17;;;;;;;;;;;;;;;20.42;46.39;94614.69;10479218;28;5513;-59
2023/10/25 03:57:17;;;;;;;;;;;;;;;20.40;46.31;94601.84;10461252;28;2571;-59
2023/10/25 04:02:18;;;;;;;;;;;;;;;20.39;46.33;94602.91;10475501;28;2638;-59
2023/10/25 04:07:18;;;;;;;;;;;;;;;20.38;46.56;94593.44;10455038;28;2650;-59
2023/10/25 04:12:19;;;;;;;;;;;;;;;20.38;46.34;94593.44;10462513;28;2789;-59
2023/10/25 04:17:19;;;;;;;;;;;;;;;20.39;46.45;94589.72;10475944;28;2562;-58
2023/10/25 04:22:19;;;;;;;;;;;;;;;20.37;46.42;94591.88;10455018;28;2731;-59
2023/10/25 04:27:19;;;;;;;;;;;;;;;20.35;46.30;94593.25;10467414;28;2554;-59
2023/10/25 04:32:20;;;;;;;;;;;;;;;20.34;46.52;94595.09;10469347;28;2642;-59
2023/10/25 04:37:20;;;;;;;;;;;;;;;20.34;46.56;94581.94;10479843;28;2693;-58
2023/10/25 04:42:20;;;;;;;;;;;;;;;20.34;46.31;94573.28;10477521;28;2579;-59
2023/10/25 04:47:21;;;;;;;;;;;;;;;20.33;46.22;94569.09;10477461;28;2603;-59
2023/10/25 04:52:21;;;;;;;;;;;;;;;20.30;46.37;94565.19;10472641;28;5286;-58
2023/10/25 04:57:21;;;;;;;;;;;;;;;20.31;46.48;94572.03;10477352;28;2621;-59
2023/10/25 05:02:21;;;;;;;;;;;;;;;20.30;46.40;94565.19;10466922;28;2555;-59
2023/10/25 05:07:22;;;;;;;;;;;;;;;20.30;46.40;94559.19;10470660;28;2562;-58
2023/10/25 05:12:24;;;;;;;;;;;;;;;20.29;46.19;94555.78;10477288;28;2939;-58
2023/10/25 05:17:25;;;;;;;;;;;;;;;20.32;46.46;94555.16;10470401;28;2547;-58
2023/10/25 05:22:26;;;;;;;;;;;;;;;20.35;46.48;94551.94;10475590;28;2662;-58
2023/10/25 05:27:26;;;;;;;;;;;;;;;20.41;46.36;94553.38;10462614;28;2595;-58
2023/10/25 05:32:27;;;;;;;;;;;;;;;20.45;45.85;94556.16;10475293;28;2630;-58
2023/10/25 05:37:27;;;;;;;;;;;;;;;20.50;45.68;94543.69;10455270;28;2624;-58
2023/10/25 05:42:28;;;;;;;;;;;;;;;20.54;45.91;94539.34;10472419;28;2810;-58
2023/10/25 05:47:28;;;;;;;;;;;;;;;20.60;45.98;94537.38;10464068;28;2804;-58
2023/10/25 05:52:28;;;;;;;;;;;;;;;20.65;45.73;94530.09;10471953;28;6275;-58
2023/10/25 05:57:29;;;;;;;;;;;;;;;20.71;45.68;94539.44;10476401;28;2587;-58
2023/10/25 06:02:29;;;;;;;;;;;;;;;20.76;46.02;94528.78;10474740;28;2543;-58
2023/10/25 06:07:29;;;;;;;;;;;;;;;20.81;45.83;94531.25;10453624;28;2599;-58
2023/10/25 06:12:30;;;;;;;;;;;;;;;20.85;45.88;94529.59;10470352;28;2821;-57
2023/10/25 06:17:30;;;;;;;;;;;;;;;20.93;45.74;94525.44;10474408;28;2591;-58
2023/10/25 06:22:30;;;;;;;;;;;;;;;21.02;45.49;94527.03;10472905;28;2663;-59
2023/10/25 06:27:30;;;;;;;;;;;;;;;20.98;45.65;94523.44;10477469;28;2516;-58
2023/10/25 06:32:33;;;;;;;;;;;;;;;21.10;45.38;94516.84;10474789;28;1980;-59
2023/10/25 06:37:33;;;;;;;;;;;;;;;21.19;45.11;94507.88;10479147;28;1460;-58
2023/10/25 06:42:34;;;;;;;;;;;;;;;21.22;45.21;94507.25;10473913;28;1996;-58
2023/10/25 06:47:34;;;;;;;;;;;;;;;21.20;45.18;94516.56;10482071;28;2461;-58
2023/10/25 06:52:34;;;;;;;;;;;;;;;21.28;45.33;94519.22;10470696;28;5506;-59
2023/10/25 06:57:35;;;;;;;;;;;;;;;21.34;44.87;94514.56;10471416;28;1680;-59
2023/10/25 07:03:05;;;;;;;;;;;;;;;21.28;45.68;94505.25;10482789;28;1697;-58
2023/10/25 07:08:05;;;;;;;;;;;;;;;21.31;45.65;94500.13;10469697;28;1607;-58
2023/10/25 07:13:06;;;;;;;;;;;;;;;21.34;45.22;94504.03;10483078;28;1906;-55
2023/10/25 07:18:06;;;;;;;;;;;;;;;21.35;45.15;94493.16;10483242;28;1902;-55
2023/10/25 07:23:08;;;;;;;;;;;;;;;21.37;45.38;94487.59;10482737;28;1512;-56
2023/10/25 07:28:08;;;;;;;;;;;;;;;21.37;45.72;94495.50;10481662;28;1555;-59
2023/10/25 07:33:10;;;;;;;;;;;;;;;21.40;45.74;94489.59;10485203;28;2604;-56
2023/10/25 07:38:10;;;;;;;;;;;;;;;21.39;46.35;94477.53;10480624;28;1581;-57
2023/10/25 07:43:13;;;;;;;;;;;;;;;21.39;46.14;94472.25;10485231;28;1379;-57
2023/10/25 07:48:13;;;;;;;;;;;;;;;21.39;46.26;94475.66;10470521;28;5229;-57
2023/10/25 07:53:13;;;;;;;;;;;;;;;21.41;46.01;94476.09;10487351;28;1910;-57
2023/10/25 07:58:14;;;;;;;;;;;;;;;21.41;45.60;94472.72;10468667;28;1436;-58
2023/10/25 08:03:16;;;;;;;;;;;;;;;21.40;45.77;94479.06;10480486;28;1601;-56
2023/10/25 08:08:17;;;;;;;;;;;;;;;21.38;46.12;94481.22;10464990;28;1484;-58
2023/10/25 08:13:17;;;;;;;;;;;;;;;21.37;46.61;94466.50;10483459;28;1910;-58
2023/10/25 08:18:17;;;;;;;;;;;;;;;21.39;46.56;94459.06;10481389;28;2626;-56
2023/10/25 08:23:18;;;;;;;;;;;;;;;21.38;46.36;94458.28;10468020;28;1463;-57
2023/10/25 08:28:18;;;;;;;;;;;;;;;21.38;46.06;94452.22;10468219;28;2694;-57
2023/10/25 08:33:18;;;;;;;;;;;;;;;21.38;45.96;94458.28;10482320;28;1977;-58
2023/10/25 08:38:18;;;;;;;;;;;;;;;21.36;45.84;94457.81;10464401;28;1521;-55
2023/10/25 08:43:19;;;;;;;;;;;;;;;21.38;46.70;94453.00;10480188;28;1910;-57
2023/10/25 08:48:19;;;;;;;;;;;;;;;21.36;46.94;94447.28;10483081;28;5081;-55
2023/10/25 08:53:27;;;;;;;;;;;;;;;21.36;46.13;94436.75;10481490;28;1969;-58
2023/10/25 08:58:27;;;;;;;;;;;;;;;21.37;46.68;94434.88;10483042;28;1718;-56
2023/10/25 09:03:30;;;;;;;;;;;;;;;21.34;46.82;94430.22;10479214;28;2497;-57
2023/10/25 09:08:31;;;;;;;;;;;;;;;21.35;46.88;94422.00;10484224;28;1565;-58
2023/10/25 09:13:32;;;;;;;;;;;;;;;21.36;47.49;94409.59;10479118;28;1997;-58
2023/10/25 09:18:33;;;;;;;;;;;;;;;21.36;47.37;94401.69;10480058;28;1795;-57
2023/10/25 09:23:35;;;;;;;;;;;;;;;21.33;47.07;94389.13;10480093;28;1474;-57
2023/10/25 09:28:35;;;;;;;;;;;;;;;21.33;47.18;94395.16;10476581;28;1539;-59
2023/10/25 09:33:36;;;;;;;;;;;;;;;21.32;47.00;94396.25;10480428;28;1967;-57
2023/10/25 09:38:36;;;;;;;;;;;;;;;21.32;47.49;94382.31;10461336;28;1455;-58
2023/10/25 09:43:36;;;;;;;;;;;;;;;21.30;46.81;94376.56;10480620;28;1463;-57
2023/10/25 09:48:36;;;;;;;;;;;;;;;21.28;46.68;94373.47;10483451;28;5197;-58
2023/10/25 09:53:40;;;;;;;;;;;;;;;21.27;46.72;94369.31;10465975;28;1906;-55
2023/10/25 09:58:40;;;;;;;;;;;;;;;21.25;46.79;94358.25;10462290;28;1670;-57
2023/10/25 10:03:44;;;;;;;;;;;;;;;21.25;46.95;94358.25;10460166;28;1745;-58
2023/10/25 10:08:50;;;;;;;;;;;;;;;21.25;46.91;94355.63;10477208;28;1563;-58
2023/10/25 10:14:09;;;;;;;;;;;;;;;21.24;46.80;94354.09;10443849;28;1906;-57
2023/10/25 10:19:11;;;;;;;;;;;;;;;21.23;47.23;94355.94;10480204;28;2125;-57
2023/10/25 10:24:31;;;;;;;;;;;;;;;21.24;48.21;94351.47;10490160;28;1527;-59
2023/10/25 10:29:31;;;;;;;;;;;;;;;21.28;47.98;94341.84;10485551;28;2602;-58
2023/10/25 10:34:52;;;;;;;;;;;;;;;21.27;47.54;94329.78;10491378;28;1975;-59
2023/10/25 10:39:55;;;;;;;;;;;;;;;21.28;48.59;94323.41;10488384;28;1537;-59
2023/10/25 10:44:57;;;;;;;;;;;;;;;21.29;48.37;94314.41;10492192;28;1775;-59
2023/10/25 10:50:00;;;;;;;;;;;;;;;21.29;48.00;94309.16;10489114;28;5306;-59
2023/10/25 10:55:00;;;;;;;;;;;;;;;21.27;48.42;94293.63;10467657;28;1515;-59
2023/10/25 11:00:00;;;;;;;;;;;;;;;21.29;48.66;94285.44;10463396;28;1587;-58
2023/10/25 11:05:01;;;;;;;;;;;;;;;21.29;48.29;94274.88;10486753;28;1671;-59
2023/10/25 11:10:01;;;;;;;;;;;;;;;21.31;48.71;94273.47;10486478;28;1965;-59
2023/10/25 11:15:03;;;;;;;;;;;;;;;21.32;48.63;94261.06;10483416;28;2775;-59
2023/10/25 11:20:04;;;;;;;;;;;;;;;21.30;48.62;94248.22;10471925;28;2740;-60
2023/10/25 11:25:08;;;;;;;;;;;;;;;21.30;48.62;94224.50;10489244;28;2191;-59
2023/10/25 11:30:08;;;;;;;;;;;;;;;21.30;48.83;94210.53;10482263;28;2548;-58
2023/10/25 11:35:22;;;;;;;;;;;;;;;21.31;48.49;94204.19;10485339;28;1718;-58
2023/10/25 11:40:33;;;;;;;;;;;;;;;21.31;48.94;94204.19;10485505;28;1487;-59
2023/10/25 11:45:37;;;;;;;;;;;;;;;21.30;48.75;94202.63;10487532;28;1573;-58
2023/10/25 11:50:37;;;;;;;;;;;;;;;21.30;48.85;94186.81;10486676;28;2587;-58
2023/10/25 11:55:38;;;;;;;;;;;;;;;21.31;48.93;94183.09;10468358;28;1743;-57
2023/10/25 12:00:39;;;;;;;;;;;;;;;21.32;48.66;94174.88;10457688;28;2547;-58
2023/10/25 12:05:41;;;;;;;;;;;;;;;21.40;49.16;94160.09;10471515;28;1773;-59
2023/10/25 12:10:41;;;;;;;;;;;;;;;21.46;49.20;94154.34;10487076;28;2566;-58
2023/10/25 12:15:41;;;;;;;;;;;;;;;21.49;49.18;94147.66;10485370;28;1867;-58
2023/10/25 12:20:42;;;;;;;;;;;;;;;21.44;48.95;94134.66;10484475;28;2621;-59
2023/10/25 12:25:42;;;;;;;;;;;;;;;21.38;48.96;94112.19;10483736;28;2546;-59
2023/10/25 12:30:42;;;;;;;;;;;;;;;21.38;49.30;94105.06;10484944;28;2216;-59
2023/10/25 12:35:43;;;;;;;;;;;;;;;21.38;49.06;94101.66;10483156;28;2419;-58
2023/10/25 12:40:43;;;;;;;;;;;;;;;21.36;49.31;94088.81;10466357;28;1844;-58
2023/10/25 12:45:43;;;;;;;;;;;;;;;21.37;49.28;94092.22;10479067;28;2318;-58
2023/10/25 12:50:44;;;;;;;;;;;;;;;21.35;49.23;94068.03;10483535;28;5120;-59
2023/10/25 12:55:44;;;;;;;;;;;;;;;21.33;48.97;94070.97;10482937;28;1766;-59
2023/10/25 13:00:44;;;;;;;;;;;;;;;21.39;49.30;94055.78;10461316;28;1875;-58
2023/10/25 13:05:44;;;;;;;;;;;;;;;21.43;49.22;94056.69;10466342;28;1605;-59
2023/10/25 13:10:45;;;;;;;;;;;;;;;21.50;49.14;94043.75;10482653;28;1910;-58
2023/10/25 13:15:45;;;;;;;;;;;;;;;21.56;49.11;94039.84;10479826;28;1891;-58
2023/10/25 13:20:46;;;;;;;;;;;;;;;21.64;48.92;94033.72;10460222;28;1950;-58
2023/10/25 13:25:47;;;;;;;;;;;;;;;21.71;48.79;94024.22;10483014;28;1613;-58
2023/10/25 13:30:47;;;;;;;;;;;;;;;21.74;48.70;94002.47;10482118;28;2483;-59
2023/10/25 13:35:50;;;;;;;;;;;;;;;21.76;48.75;94008.19;10463750;28;1766;-58
2023/10/25 13:40:51;;;;;;;;;;;;;;;21.81;48.70;94001.97;10477551;28;1503;-58
2023/10/25 13:45:51;;;;;;;;;;;;;;;21.82;48.38;93987.72;10477379;28;1712;-58
2023/10/25 13:50:51;;;;;;;;;;;;;;;21.85;48.47;93987.06;10482372;28;2003;-58
2023/10/25 13:55:51;;;;;;;;;;;;;;;21.88;48.21;93975.88;10464544;28;1472;-58
2023/10/25 14:00:52;;;;;;;;;;;;;;;21.90;48.53;93976.31;10492583;28;1713;-58
2023/10/25 14:05:52;;;;;;;;;;;;;;;21.93;48.14;93972.28;10485477;28;1708;-59
2023/10/25 14:10:52;;;;;;;;;;;;;;;21.95;48.19;93960.28;10485006;28;1914;-60
2023/10/25 14:15:53;;;;;;;;;;;;;;;21.96;48.02;93946.00;10488622;28;2366;-59
2023/10/25 14:20:53;;;;;;;;;;;;;;;22.01;48.14;93942.41;10488955;28;1513;-57
2023/10/25 14:25:53;;;;;;;;;;;;;;;22.04;47.89;93937.25;10472655;28;1689;-59
2023/10/25 14:30:53;;;;;;;;;;;;;;;22.08;47.87;93932.84;10489997;28;2655;-59
2023/10/25 14:35:54;;;;;;;;;;;;;;;22.13;47.57;93932.66;10490074;28;2500;-58
2023/10/25 14:40:54;;;;;;;;;;;;;;;22.17;48.11;93925.63;10487259;28;1770;-58
2023/10/25 14:45:54;;;;;;;;;;;;;;;22.19;47.91;93936.63;10491504;28;1661;-57
2023/10/25 14:50:55;;;;;;;;;;;;;;;22.09;46.90;93934.38;10472720;28;5509;-56
2023/10/25 14:55:55;;;;;;;;;;;;;;;22.02;45.77;93933.38;10484426;28;1773;-58
2023/10/25 15:00:55;;;;;;;;;;;;;;;21.94;45.33;93932.38;10467391;28;2817;-58
2023/10/25 15:05:55;;;;;;;;;;;;;;;21.89;44.99;93929.94;10487176;28;1732;-58
2023/10/25 15:10:59;;;;;;;;;;;;;;;21.86;45.37;93927.97;10485212;28;1977;-58
2023/10/25 15:16:00;;;;;;;;;;;;;;;21.87;45.51;93921.56;10485248;28;1522;-58
2023/10/25 15:21:00;;;;;;;;;;;;;;;21.93;45.56;93916.88;10486553;28;1761;-57
2023/10/25 15:26:03;;;;;;;;;;;;;;;22.00;45.37;93909.19;10486586;28;1795;-58
2023/10/25 15:31:08;;;;;;;;;;;;;;;22.02;45.55;93907.78;10485750;28;1909;-57
2023/10/25 15:36:08;;;;;;;;;;;;;;;22.08;45.26;93909.09;10484545;28;1860;-58
2023/10/25 15:41:14;;;;;;;;;;;;;;;22.03;46.30;93929.66;10482363;28;1490;-58
2023/10/25 15:46:24;;;;;;;;;;;;;;;22.06;46.35;93942.19;10483981;28;1498;-58
2023/10/25 15:51:24;;;;;;;;;;;;;;;22.09;46.21;93960.00;10483044;28;2384;-58
2023/10/25 15:56:24;;;;;;;;;;;;;;;22.11;46.26;93961.25;10484309;28;2520;-58
2023/10/25 16:01:24;;;;;;;;;;;;;;;22.17;45.77;93962.56;10485718;28;2648;-57
2023/10/25 16:06:25;;;;;;;;;;;;;;;22.22;45.61;93962.34;10467277;28;1874;-58
2023/10/25 16:11:26;;;;;;;;;;;;;;;22.26;45.82;93971.16;10466743;28;1910;-58
2023/10/25 16:16:27;;;;;;;;;;;;;;;22.31;45.12;93968.31;10486871;28;1460;-58
2023/10/25 16:21:27;;;;;;;;;;;;;;;22.33;45.31;93965.34;10486140;28;2439;-58
2023/10/25 16:26:28;;;;;;;;;;;;;;;22.35;45.63;93974.50;10485859;28;1810;-58
2023/10/25 16:31:28;;;;;;;;;;;;;;;22.36;45.09;93976.03;10482147;28;2198;-57
2023/10/25 16:36:28;;;;;;;;;;;;;;;22.40;45.72;93978.81;10474821;28;1559;-55
2023/10/25 16:41:29;;;;;;;;;;;;;;;22.38;46.00;93988.91;10479653;28;2390;-54
2023/10/25 16:46:29;;;;;;;;;;;;;;;22.38;45.99;93994.94;10479020;28;1471;-57
2023/10/25 16:51:31;;;;;;;;;;;;;;;22.41;45.55;93996.94;10477868;28;5176;-58
2023/10/25 16:56:31;;;;;;;;;;;;;;;22.41;45.76;94004.09;10480251;28;1860;-58
2023/10/25 17:01:31;;;;;;;;;;;;;;;22.38;45.96;93989.66;10477541;28;1680;-58
2023/10/25 17:06:31;;;;;;;;;;;;;;;22.30;46.17;93982.59;10486287;28;1872;-58
2023/10/25 17:11:32;;;;;;;;;;;;;;;22.32;46.42;93983.06;10474839;28;1918;-56
2023/10/25 17:16:32;;;;;;;;;;;;;;;22.23;46.42;93968.41;10473789;28;2387;-56
2023/10/25 17:21:32;;;;;;;;;;;;;;;22.21;46.46;93997.78;10476217;28;1531;-57
2023/10/25 17:26:33;;;;;;;;;;;;;;;22.22;46.67;94006.44;10477954;28;2474;-57
2023/10/25 17:31:33;;;;;;;;;;;;;;;22.23;46.73;93986.88;10475664;28;1970;-58
2023/10/25 17:36:34;;;;;;;;;;;;;;;22.17;46.66;93983.69;10477321;28;1861;-58
2023/10/25 17:41:34;;;;;;;;;;;;;;;22.13;46.62;93940.56;10478170;28;1638;-58
2023/10/25 17:46:34;;;;;;;;;;;;;;;22.15;46.75;93950.78;10460831;28;1500;-58
2023/10/25 17:51:35;;;;;;;;;;;;;;;22.15;46.82;93932.31;10459570;28;5113;-57
2023/10/25 17:56:35;;;;;;;;;;;;;;;22.12;47.11;93935.59;10482869;28;2305;-57
2023/10/25 18:01:36;;;;;;;;;;;;;;;22.10;46.98;93938.56;10483001;28;1745;-58
2023/10/25 18:06:36;;;;;;;;;;;;;;;22.07;47.24;93941.84;10492223;28;1624;-59
2023/10/25 18:11:36;;;;;;;;;;;;;;;22.12;47.32;93940.88;10478815;28;2795;-58
2023/10/25 18:16:36;;;;;;;;;;;;;;;22.14;47.01;93965.06;10475404;28;2310;-58
2023/10/25 18:21:37;;;;;;;;;;;;;;;22.13;47.25;93966.97;10463515;28;1523;-56
2023/10/25 18:26:37;;;;;;;;;;;;;;;22.12;47.57;93933.75;10475253;28;1684;-57
2023/10/25 18:31:39;;;;;;;;;;;;;;;22.14;47.37;93936.81;10480418;28;1910;-58
2023/10/25 18:36:39;;;;;;;;;;;;;;;22.11;47.44;93958.59;10479848;28;1595;-57
2023/10/25 18:41:40;;;;;;;;;;;;;;;22.10;47.02;93935.94;10479516;28;1796;-57
2023/10/25 18:46:40;;;;;;;;;;;;;;;22.10;47.29;93922.75;10486805;28;2042;-58
2023/10/25 18:51:41;;;;;;;;;;;;;;;22.09;47.12;93912.53;10487133;28;5421;-55
2023/10/25 18:56:41;;;;;;;;;;;;;;;22.07;46.98;93907.56;10487023;28;2625;-58
2023/10/25 19:01:42;;;;;;;;;;;;;;;22.08;47.31;93921.53;10481449;28;1730;-57
2023/10/25 19:06:42;;;;;;;;;;;;;;;22.06;47.17;93916.56;10450909;28;1509;-56
2023/10/25 19:11:42;;;;;;;;;;;;;;;22.07;47.03;93925.28;10467705;28;1918;-55
2023/10/25 19:16:44;;;;;;;;;;;;;;;22.03;46.94;93892.72;10482801;28;1638;-57
2023/10/25 19:21:44;;;;;;;;;;;;;;;22.01;47.03;93877.19;10469116;28;1664;-58
2023/10/25 19:26:45;;;;;;;;;;;;;;;22.01;46.77;93893.03;10470011;28;1654;-57
2023/10/25 19:31:46;;;;;;;;;;;;;;;22.02;46.99;93904.34;10483855;28;1918;-56
2023/10/25 19:36:47;;;;;;;;;;;;;;;22.02;47.13;93922.81;10480799;28;1849;-57
2023/10/25 19:41:48;;;;;;;;;;;;;;;22.02;47.44;93950.00;10483432;28;2518;-55
2023/10/25 19:46:48;;;;;;;;;;;;;;;22.02;47.55;93944.72;10481989;28;1674;-56
2023/10/25 19:51:48;;;;;;;;;;;;;;;22.03;47.40;93950.75;10482460;28;1905;-58
2023/10/25 19:56:49;;;;;;;;;;;;;;;22.03;47.45;93956.78;10478654;28;1770;-57
2023/10/25 20:01:50;;;;;;;;;;;;;;;22.01;47.35;94001.19;10466635;28;2206;-56
2023/10/25 20:06:50;;;;;;;;;;;;;;;22.01;47.25;93990.66;10484782;28;1809;-56
2023/10/25 20:11:50;;;;;;;;;;;;;;;22.00;47.24;93975.16;10478536;28;1969;-55
2023/10/25 20:16:51;;;;;;;;;;;;;;;21.98;47.13;93964.94;10485370;28;1515;-55
2023/10/25 20:21:52;;;;;;;;;;;;;;;21.99;46.97;93978.91;10481912;28;1786;-53
2023/10/25 20:26:55;;;;;;;;;;;;;;;21.98;46.96;93977.34;10468649;28;2487;-51
2023/10/25 20:31:55;;;;;;;;;;;;;;;21.99;46.82;93976.25;10483298;28;1914;-58
2023/10/25 20:36:55;;;;;;;;;;;;;;;21.93;47.12;93980.19;10447546;28;2677;-56
2023/10/25 20:41:56;;;;;;;;;;;;;;;21.89;46.87;93993.25;10468315;28;2743;-57
2023/10/25 20:46:56;;;;;;;;;;;;;;;21.88;46.46;94029.38;10463108;28;2704;-57
2023/10/25 20:51:56;;;;;;;;;;;;;;;21.80;45.98;94032.09;10462896;28;5217;-56
2023/10/25 20:56:57;;;;;;;;;;;;;;;21.74;45.66;94051.84;10463309;28;2783;-55
2023/10/25 21:01:57;;;;;;;;;;;;;;;21.65;45.86;94014.19;10469416;28;2864;-57
2023/10/25 21:06:57;;;;;;;;;;;;;;;21.58;45.87;94037.66;10473118;28;2607;-57
2023/10/25 21:11:58;;;;;;;;;;;;;;;21.51;45.44;94050.59;10468720;28;2585;-57
2023/10/25 21:16:58;;;;;;;;;;;;;;;21.44;45.84;94048.44;10471908;28;2674;-55
2023/10/25 21:21:59;;;;;;;;;;;;;;;21.42;47.10;94052.50;10475074;28;2507;-58
2023/10/25 21:26:59;;;;;;;;;;;;;;;21.42;46.82;94060.41;10473445;28;2571;-57
2023/10/25 21:31:59;;;;;;;;;;;;;;;21.43;46.62;94059.31;10475221;28;2694;-57
2023/10/25 21:37:02;;;;;;;;;;;;;;;21.42;47.17;94060.41;10473654;28;2583;-56
2023/10/25 21:42:02;;;;;;;;;;;;;;;21.42;46.90;94076.22;10473222;28;2854;-57
2023/10/25 21:47:03;;;;;;;;;;;;;;;21.41;47.31;94072.03;10478629;28;2559;-57
2023/10/25 21:52:03;;;;;;;;;;;;;;;21.40;47.34;94075.75;10473616;28;5066;-58
2023/10/25 21:57:04;;;;;;;;;;;;;;;21.38;47.33;94078.72;10469400;28;2608;-57
2023/10/25 22:02:04;;;;;;;;;;;;;;;21.38;46.89;94083.22;10470483;28;2759;-57
2023/10/25 22:07:04;;;;;;;;;;;;;;;21.36;46.91;94074.84;10472418;28;2584;-57
2023/10/25 22:12:05;;;;;;;;;;;;;;;21.34;47.50;94056.72;10468091;28;2697;-57
2023/10/25 22:17:05;;;;;;;;;;;;;;;21.32;47.37;94053.63;10443900;28;2899;-57
2023/10/25 22:22:05;;;;;;;;;;;;;;;21.32;46.87;94058.13;10484642;28;2529;-57
2023/10/25 22:27:06;;;;;;;;;;;;;;;21.30;47.10;94055.03;10483831;28;2664;-57
2023/10/25 22:32:06;;;;;;;;;;;;;;;21.30;47.39;94055.03;10474023;28;2928;-57
2023/10/25 22:37:09;;;;;;;;;;;;;;;21.29;47.07;94053.50;10481248;28;2661;-58
2023/10/25 22:42:09;;;;;;;;;;;;;;;21.26;47.41;94038.31;10480401;28;2512;-55
2023/10/25 22:47:09;;;;;;;;;;;;;;;21.25;47.47;94042.81;10480054;28;2546;-59
2023/10/25 22:52:10;;;;;;;;;;;;;;;21.24;47.49;94051.03;10479644;28;5307;-57
2023/10/25 22:57:10;;;;;;;;;;;;;;;21.22;47.10;94053.22;10481526;28;2702;-58
2023/10/25 23:02:10;;;;;;;;;;;;;;;21.21;47.40;94041.13;10482270;28;2869;-58
2023/10/25 23:07:10;;;;;;;;;;;;;;;21.18;47.43;94050.47;10482649;28;2735;-57
2023/10/25 23:12:11;;;;;;;;;;;;;;;21.19;47.27;94045.94;10458903;28;2586;-57
2023/10/25 23:17:11;;;;;;;;;;;;;;;21.17;47.33;94041.00;10479693;28;2562;-57
2023/10/25 23:22:11;;;;;;;;;;;;;;;21.15;47.21;94043.16;10478626;28;2666;-57
2023/10/25 23:27:12;;;;;;;;;;;;;;;21.15;47.08;94026.59;10477174;28;2585;-57
2023/10/25 23:32:12;;;;;;;;;;;;;;;21.13;47.10;94028.75;10470172;28;2570;-57
2023/10/25 23:37:12;;;;;;;;;;;;;;;21.12;46.88;94028.00;10464408;28;2883;-57
2023/10/25 23:42:13;;;;;;;;;;;;;;;21.11;47.31;94038.84;10478262;28;2614;-56
2023/10/25 23:47:13;;;;;;;;;;;;;;;21.10;46.94;94034.69;10459165;28;2590;-57
2023/10/25 23:52:13;;;;;;;;;;;;;;;21.08;46.87;94031.59;10473879;28;5473;-55
2023/10/25 23:57:13;;;;;;;;;;;;;;;21.05;46.94;94028.50;10468143;28;2591;-57
